Time;durP1;ratioP1;P1;durP2;ratioP2;P2;SDS_P1;SDS_P2;PMS_P1;PMS_P2;Temp;Humidity;BMP_temperature;BMP_pressure;BME280_temperature;BME280_humidity;BME280_pressure;Samples;Min_cycle;Max_cycle;Signal;HPM_P1;HPM_P2
2020/12/11 00:01:05;;;;;;;0.75;0.50;;;14.20;68.30;;;;;;4988858;28;20039;-81
2020/12/11 00:03:31;;;;;;;1.25;0.70;;;14.20;68.30;;;;;;4988504;28;20034;-80
2020/12/11 00:05:56;;;;;;;0.73;0.70;;;14.20;68.40;;;;;;4986641;28;20058;-80
2020/12/11 00:08:22;;;;;;;0.63;0.55;;;14.20;68.30;;;;;;4990479;28;20043;-80
2020/12/11 00:10:48;;;;;;;0.98;0.70;;;14.20;68.30;;;;;;4991855;28;20042;-80
2020/12/11 00:13:13;;;;;;;0.50;0.45;;;14.20;68.30;;;;;;4992799;28;20478;-80
2020/12/11 00:15:39;;;;;;;0.40;0.40;;;14.20;68.40;;;;;;4989861;28;20041;-78
2020/12/11 00:18:05;;;;;;;0.82;0.60;;;14.20;68.40;;;;;;4991595;28;20081;-78
2020/12/11 00:20:31;;;;;;;0.57;0.57;;;14.20;68.30;;;;;;4970063;28;20034;-78
2020/12/11 00:22:57;;;;;;;0.63;0.52;;;14.20;68.30;;;;;;4991175;28;20053;-78
2020/12/11 00:25:23;;;;;;;1.20;0.65;;;14.20;68.30;;;;;;4989177;28;20376;-78
2020/12/11 00:27:48;;;;;;;0.82;0.60;;;14.20;68.30;;;;;;4966296;28;20462;-78
2020/12/11 00:30:14;;;;;;;0.95;0.75;;;14.20;68.30;;;;;;4983547;28;20432;-78
2020/12/11 00:32:40;;;;;;;0.68;0.68;;;14.20;68.40;;;;;;4990824;28;20038;-78
2020/12/11 00:35:07;;;;;;;2.90;1.33;;;14.20;68.40;;;;;;4991743;28;20038;-78
2020/12/11 00:37:33;;;;;;;0.85;0.60;;;14.20;68.30;;;;;;4988617;28;20085;-78
2020/12/11 00:39:59;;;;;;;0.60;0.60;;;14.20;68.30;;;;;;4974441;28;20034;-78
2020/12/11 00:42:25;;;;;;;1.13;0.70;;;14.20;68.40;;;;;;4991897;28;20124;-78
2020/12/11 00:44:50;;;;;;;0.63;0.63;;;14.20;68.40;;;;;;4990178;28;20539;-78
2020/12/11 00:47:16;;;;;;;1.63;0.52;;;14.20;68.40;;;;;;4989121;28;20030;-79
2020/12/11 00:49:46;;;;;;;0.68;0.68;;;14.20;68.40;;;;;;4988122;28;20046;-78
2020/12/11 00:52:12;;;;;;;0.57;0.57;;;14.20;68.40;;;;;;4993187;28;20487;-78
2020/12/11 00:54:37;;;;;;;0.52;0.52;;;14.20;68.30;;;;;;4968081;28;21549;-78
2020/12/11 00:57:03;;;;;;;0.47;0.47;;;14.20;68.30;;;;;;4972460;28;20491;-78
2020/12/11 00:59:28;;;;;;;0.60;0.60;;;14.20;68.30;;;;;;4988864;28;20039;-77
2020/12/11 01:01:54;;;;;;;0.82;0.60;;;14.20;68.30;;;;;;4989066;28;20109;-78
2020/12/11 01:04:20;;;;;;;0.95;0.43;;;14.20;68.30;;;;;;4985459;28;20476;-78
2020/12/11 01:06:46;;;;;;;0.60;0.52;;;14.20;68.30;;;;;;4990415;28;20062;-79
2020/12/11 01:09:11;;;;;;;2.35;0.60;;;14.20;68.40;;;;;;4987873;28;20080;-79
2020/12/11 01:11:37;;;;;;;0.80;0.73;;;14.20;68.30;;;;;;4992131;28;20038;-78
2020/12/11 01:14:02;;;;;;;0.93;0.60;;;14.20;68.30;;;;;;4991463;28;20049;-79
2020/12/11 01:16:28;;;;;;;0.85;0.50;;;14.20;68.30;;;;;;4988135;28;20038;-78
2020/12/11 01:18:54;;;;;;;0.55;0.52;;;14.20;68.30;;;;;;4981402;28;20096;-79
2020/12/11 01:21:19;;;;;;;0.60;0.60;;;14.20;68.30;;;;;;4970602;28;20429;-78
2020/12/11 01:23:45;;;;;;;0.70;0.70;;;14.20;68.30;;;;;;4989544;28;20109;-78
2020/12/11 01:26:11;;;;;;;0.60;0.60;;;14.20;68.30;;;;;;4974892;28;20142;-78
2020/12/11 01:28:36;;;;;;;0.65;0.55;;;14.20;68.30;;;;;;4991008;28;20038;-78
2020/12/11 01:31:03;;;;;;;0.73;0.65;;;14.20;68.30;;;;;;4970037;28;20092;-78
2020/12/11 01:33:29;;;;;;;0.60;0.60;;;14.20;68.40;;;;;;4975137;28;20042;-78
2020/12/11 01:35:54;;;;;;;0.50;0.40;;;14.20;68.40;;;;;;4989842;28;20039;-78
2020/12/11 01:38:20;;;;;;;0.80;0.70;;;14.20;68.40;;;;;;4963378;28;20030;-78
2020/12/11 01:40:46;;;;;;;0.63;0.55;;;14.20;68.30;;;;;;4973441;28;20503;-78
2020/12/11 01:43:13;;;;;;;0.52;0.50;;;14.20;68.30;;;;;;4990207;28;20536;-78
2020/12/11 01:45:39;;;;;;;1.20;0.75;;;14.20;68.30;;;;;;4980728;28;20037;-78
2020/12/11 01:48:06;;;;;;;0.95;0.70;;;14.20;68.30;;;;;;4990790;28;20026;-78
2020/12/11 01:50:34;;;;;;;0.65;0.60;;;14.20;68.30;;;;;;4988596;28;20093;-78
2020/12/11 01:53:00;;;;;;;0.60;0.50;;;14.20;68.30;;;;;;4993073;28;20030;-78
2020/12/11 01:55:25;;;;;;;0.50;0.50;;;14.20;68.30;;;;;;4988529;28;20464;-78
2020/12/11 01:57:59;;;;;;;0.63;0.63;;;14.20;68.30;;;;;;4973853;28;20133;-78
2020/12/11 02:00:25;;;;;;;0.50;0.50;;;14.20;68.30;;;;;;4989269;28;20058;-79
2020/12/11 02:03:17;;;;;;;0.60;0.50;;;14.20;68.30;;;;;;4988820;28;20045;-78
2020/12/11 02:05:43;;;;;;;0.68;0.60;;;14.20;68.30;;;;;;4989689;28;20086;-78
2020/12/11 02:08:11;;;;;;;0.50;0.47;;;14.20;68.30;;;;;;4991769;28;20046;-77
2020/12/11 02:10:36;;;;;;;1.10;0.73;;;14.20;68.30;;;;;;4989388;28;20108;-78
2020/12/11 02:13:08;;;;;;;1.98;0.70;;;14.20;68.30;;;;;;4986592;28;20472;-79
2020/12/11 02:15:34;;;;;;;0.40;0.40;;;14.20;68.30;;;;;;4986749;28;20031;-78
2020/12/11 02:18:00;;;;;;;1.00;0.50;;;14.20;68.30;;;;;;4988578;28;20101;-78
2020/12/11 02:20:26;;;;;;;0.77;0.60;;;14.20;68.30;;;;;;4985267;28;20034;-78
2020/12/11 02:22:51;;;;;;;0.60;0.60;;;14.20;68.40;;;;;;4966902;28;20046;-79
2020/12/11 02:25:17;;;;;;;0.45;0.45;;;14.20;68.30;;;;;;4982921;28;20484;-78
2020/12/11 02:27:46;;;;;;;0.60;0.50;;;14.20;68.40;;;;;;4968591;28;20035;-78
2020/12/11 02:30:24;;;;;;;0.65;0.50;;;14.20;68.40;;;;;;4972958;28;20030;-78
2020/12/11 02:32:49;;;;;;;0.45;0.45;;;14.20;68.40;;;;;;4971568;28;20038;-78
2020/12/11 02:35:15;;;;;;;0.70;0.70;;;14.20;68.40;;;;;;4974214;28;20065;-78
2020/12/11 02:37:40;;;;;;;0.70;0.57;;;14.20;68.30;;;;;;4993059;28;20042;-78
2020/12/11 02:40:11;;;;;;;0.65;0.65;;;14.20;68.30;;;;;;4969575;28;20034;-78
2020/12/11 02:42:36;;;;;;;1.15;0.90;;;14.20;68.40;;;;;;4994523;28;20038;-78
2020/12/11 02:45:03;;;;;;;0.80;0.60;;;14.20;68.40;;;;;;4989888;28;20038;-78
2020/12/11 02:47:33;;;;;;;0.60;0.50;;;14.20;68.40;;;;;;4994714;28;20117;-78
2020/12/11 02:50:03;;;;;;;0.63;0.60;;;14.20;68.40;;;;;;4992118;28;20082;-78
2020/12/11 02:52:29;;;;;;;0.60;0.60;;;14.20;68.30;;;;;;4992644;28;20054;-78
2020/12/11 02:54:55;;;;;;;1.48;0.50;;;14.20;68.40;;;;;;4994282;28;20043;-78
2020/12/11 02:57:21;;;;;;;0.93;0.70;;;14.20;68.40;;;;;;4994517;28;20491;-78
2020/12/11 02:59:46;;;;;;;0.73;0.73;;;14.20;68.30;;;;;;4981088;28;20085;-78
2020/12/11 03:02:12;;;;;;;0.50;0.50;;;14.20;68.30;;;;;;4971798;28;20487;-78
2020/12/11 03:04:38;;;;;;;0.68;0.63;;;14.20;68.40;;;;;;4990397;28;20121;-77
2020/12/11 03:07:03;;;;;;;0.80;0.70;;;14.20;68.40;;;;;;4991769;28;20178;-77
2020/12/11 03:09:29;;;;;;;0.70;0.63;;;14.20;68.40;;;;;;4993054;28;20062;-79
2020/12/11 03:11:54;;;;;;;0.57;0.57;;;14.20;68.30;;;;;;4968263;28;20532;-79
2020/12/11 03:14:20;;;;;;;0.50;0.45;;;14.20;68.30;;;;;;4985540;28;20126;-78
2020/12/11 03:16:45;;;;;;;1.25;0.70;;;14.20;68.30;;;;;;4990790;28;20046;-78
2020/12/11 03:19:11;;;;;;;0.77;0.57;;;14.20;68.40;;;;;;4990209;28;20054;-78
2020/12/11 03:21:41;;;;;;;0.95;0.63;;;14.20;68.40;;;;;;4990330;28;20026;-78
2020/12/11 03:24:07;;;;;;;1.02;0.77;;;14.20;68.40;;;;;;4990751;28;20403;-78
2020/12/11 03:26:32;;;;;;;0.73;0.60;;;14.20;68.30;;;;;;4993139;28;20042;-78
2020/12/11 03:28:58;;;;;;;0.73;0.52;;;14.20;68.40;;;;;;4990462;28;20129;-78
2020/12/11 03:31:24;;;;;;;0.70;0.63;;;14.20;68.40;;;;;;4987667;28;20118;-78
2020/12/11 03:33:49;;;;;;;0.60;0.45;;;14.20;68.40;;;;;;4994033;28;20058;-78
2020/12/11 03:36:19;;;;;;;1.10;0.70;;;14.20;68.40;;;;;;4975873;28;20089;-78
2020/12/11 03:38:45;;;;;;;0.65;0.60;;;14.20;68.40;;;;;;4994415;28;20117;-78
2020/12/11 03:41:14;;;;;;;0.55;0.50;;;14.20;68.40;;;;;;4994214;28;20109;-78
2020/12/11 03:43:40;;;;;;;0.50;0.50;;;14.20;68.40;;;;;;4974572;28;20042;-78
2020/12/11 03:46:06;;;;;;;0.65;0.65;;;14.20;68.40;;;;;;4988527;28;20495;-78
2020/12/11 03:48:31;;;;;;;0.45;0.45;;;14.20;68.40;;;;;;4975973;28;20387;-78
2020/12/11 03:50:57;;;;;;;0.70;0.70;;;14.20;68.40;;;;;;4992285;28;20081;-78
2020/12/11 03:53:22;;;;;;;0.85;0.60;;;14.10;68.40;;;;;;4993170;28;20442;-78
2020/12/11 03:55:48;;;;;;;1.52;1.00;;;14.20;68.40;;;;;;4991204;28;20089;-79
2020/12/11 03:58:14;;;;;;;0.90;0.50;;;14.20;68.40;;;;;;4975441;28;20038;-78
2020/12/11 04:00:39;;;;;;;0.90;0.85;;;14.20;68.50;;;;;;4990802;28;20041;-78
2020/12/11 04:03:05;;;;;;;0.55;0.55;;;14.20;68.40;;;;;;4990747;28;20053;-78
2020/12/11 04:05:30;;;;;;;0.60;0.50;;;14.10;68.50;;;;;;4988881;28;20492;-78
2020/12/11 04:07:56;;;;;;;0.70;0.70;;;14.10;68.40;;;;;;4985484;28;20054;-78
2020/12/11 04:10:22;;;;;;;1.08;0.82;;;14.20;68.50;;;;;;4992509;28;20049;-78
2020/12/11 04:12:47;;;;;;;0.50;0.50;;;14.10;68.40;;;;;;4969304;28;20047;-78
2020/12/11 04:15:13;;;;;;;0.68;0.68;;;14.10;68.40;;;;;;4993550;28;20038;-78
2020/12/11 04:17:39;;;;;;;0.80;0.65;;;14.10;68.50;;;;;;4990236;28;20463;-78
2020/12/11 04:20:04;;;;;;;0.63;0.60;;;14.10;68.50;;;;;;4973530;28;20038;-78
2020/12/11 04:22:30;;;;;;;0.45;0.45;;;14.20;68.50;;;;;;4984849;28;20515;-78
2020/12/11 04:24:55;;;;;;;0.60;0.60;;;14.10;68.50;;;;;;4974825;28;20046;-78
2020/12/11 04:27:21;;;;;;;0.90;0.73;;;14.10;68.50;;;;;;4993459;28;20093;-78
2020/12/11 04:29:47;;;;;;;1.10;0.80;;;14.10;68.50;;;;;;4975226;28;20488;-78
2020/12/11 04:32:17;;;;;;;0.43;0.43;;;14.10;68.50;;;;;;4989736;28;20065;-78
2020/12/11 04:34:42;;;;;;;0.80;0.63;;;14.10;68.50;;;;;;4971569;28;20037;-79
2020/12/11 04:37:08;;;;;;;0.57;0.57;;;14.10;68.50;;;;;;4986187;28;20039;-78
2020/12/11 04:39:34;;;;;;;0.50;0.50;;;14.10;68.50;;;;;;4970693;28;20198;-78
2020/12/11 04:42:02;;;;;;;0.80;0.68;;;14.10;68.60;;;;;;4995824;28;20065;-78
2020/12/11 04:44:28;;;;;;;0.50;0.50;;;14.10;68.50;;;;;;4973422;28;20039;-78
2020/12/11 04:46:54;;;;;;;0.85;0.63;;;14.10;68.50;;;;;;4983045;28;20686;-78
2020/12/11 04:49:20;;;;;;;0.80;0.80;;;14.10;68.60;;;;;;4988871;28;20030;-77
2020/12/11 04:51:50;;;;;;;0.82;0.65;;;14.10;68.50;;;;;;4985779;28;20125;-78
2020/12/11 04:54:21;;;;;;;0.57;0.57;;;14.10;68.50;;;;;;4968368;28;20070;-78
2020/12/11 04:56:51;;;;;;;0.60;0.55;;;14.10;68.60;;;;;;4974394;28;20125;-78
2020/12/11 04:59:19;;;;;;;0.50;0.47;;;14.10;68.50;;;;;;4985497;28;20066;-77
2020/12/11 05:01:45;;;;;;;0.53;0.50;;;14.10;68.60;;;;;;4991362;28;20042;-78
2020/12/11 05:04:11;;;;;;;0.52;0.50;;;14.10;68.60;;;;;;4992271;28;20551;-77
2020/12/11 05:06:37;;;;;;;0.45;0.45;;;14.10;68.60;;;;;;4971045;28;20074;-78
2020/12/11 05:09:13;;;;;;;0.52;0.50;;;14.10;68.60;;;;;;4992039;28;20117;-78
2020/12/11 05:11:41;;;;;;;0.65;0.52;;;14.10;68.60;;;;;;4974922;28;20085;-78
2020/12/11 05:14:27;;;;;;;0.98;0.82;;;14.10;68.60;;;;;;4986467;28;20042;-78
2020/12/11 05:16:57;;;;;;;0.50;0.50;;;14.10;68.60;;;;;;4980899;28;20128;-78
2020/12/11 05:19:22;;;;;;;0.68;0.57;;;14.10;68.60;;;;;;4987756;28;20049;-77
2020/12/11 05:21:48;;;;;;;0.60;0.60;;;14.10;68.60;;;;;;4991266;28;20476;-78
2020/12/11 05:24:14;;;;;;;0.60;0.60;;;14.10;68.60;;;;;;4990426;28;20042;-77
2020/12/11 05:26:39;;;;;;;1.20;0.40;;;14.10;68.60;;;;;;4997253;28;20502;-78
2020/12/11 05:29:05;;;;;;;0.63;0.50;;;14.10;68.60;;;;;;4990879;28;20498;-77
2020/12/11 05:31:31;;;;;;;0.68;0.60;;;14.10;68.60;;;;;;4985076;28;20100;-78
2020/12/11 05:34:06;;;;;;;0.68;0.57;;;14.10;68.60;;;;;;4991233;28;20045;-77
2020/12/11 05:36:47;;;;;;;0.75;0.57;;;14.10;68.60;;;;;;4986049;28;20395;-78
2020/12/11 05:39:20;;;;;;;0.95;0.80;;;14.10;68.60;;;;;;4965673;28;20070;-78
2020/12/11 05:41:50;;;;;;;0.95;0.60;;;14.10;68.60;;;;;;4991232;28;20117;-78
2020/12/11 05:44:26;;;;;;;1.60;0.77;;;14.10;68.60;;;;;;4990455;28;20134;-78
2020/12/11 05:46:52;;;;;;;0.82;0.60;;;14.10;68.60;;;;;;4986028;28;20451;-78
2020/12/11 05:49:30;;;;;;;1.00;0.60;;;14.10;68.60;;;;;;4972075;28;20040;-77
2020/12/11 05:52:25;;;;;;;0.90;0.70;;;14.10;68.60;;;;;;4975422;28;20510;-78
2020/12/11 05:54:54;;;;;;;1.15;0.65;;;14.10;68.60;;;;;;4973585;28;20038;-78
2020/12/11 05:57:22;;;;;;;0.60;0.60;;;14.10;68.60;;;;;;4991913;28;20050;-78
2020/12/11 05:59:48;;;;;;;0.75;0.52;;;14.10;68.60;;;;;;4973919;28;20045;-77
2020/12/11 06:02:17;;;;;;;0.93;0.70;;;14.10;68.60;;;;;;4968790;28;20042;-78
2020/12/11 06:04:45;;;;;;;0.65;0.60;;;14.10;68.60;;;;;;4991146;28;20472;-78
2020/12/11 06:07:12;;;;;;;0.70;0.68;;;14.10;68.60;;;;;;4989418;28;20060;-78
2020/12/11 06:09:39;;;;;;;0.55;0.55;;;14.10;68.60;;;;;;4973663;28;20038;-78
2020/12/11 06:12:07;;;;;;;0.88;0.57;;;14.10;68.60;;;;;;4994197;28;20038;-78
2020/12/11 06:14:58;;;;;;;0.45;0.45;;;14.10;68.60;;;;;;4994456;28;20117;-78
2020/12/11 06:17:27;;;;;;;0.68;0.68;;;14.10;68.60;;;;;;4979247;28;20036;-78
2020/12/11 06:19:55;;;;;;;0.68;0.65;;;14.10;68.60;;;;;;4992471;28;20034;-78
2020/12/11 06:22:21;;;;;;;0.75;0.70;;;14.10;68.60;;;;;;4965102;28;20047;-78
2020/12/11 06:24:47;;;;;;;0.80;0.52;;;14.10;68.60;;;;;;4987744;28;20040;-78
2020/12/11 06:27:13;;;;;;;0.90;0.57;;;14.10;68.60;;;;;;4993484;28;20042;-78
2020/12/11 06:29:41;;;;;;;0.95;0.73;;;14.10;68.60;;;;;;4975542;28;20053;-78
2020/12/11 06:32:08;;;;;;;0.77;0.70;;;14.10;68.60;;;;;;4992112;28;20082;-78
2020/12/11 06:34:34;;;;;;;0.57;0.40;;;14.10;68.60;;;;;;4979912;28;20488;-78
2020/12/11 06:37:00;;;;;;;0.70;0.70;;;14.10;68.50;;;;;;4974860;28;20049;-78
2020/12/11 06:39:47;;;;;;;0.55;0.50;;;14.10;68.60;;;;;;4992572;28;20038;-77
2020/12/11 06:42:35;;;;;;;0.75;0.50;;;14.10;68.50;;;;;;4974325;28;20069;-77
2020/12/11 06:45:25;;;;;;;0.60;0.60;;;14.10;68.60;;;;;;4993064;28;20392;-78
2020/12/11 06:47:53;;;;;;;0.82;0.68;;;14.10;68.60;;;;;;4993434;28;20027;-78
2020/12/11 06:50:21;;;;;;;0.52;0.50;;;14.10;68.60;;;;;;4975496;28;20077;-78
2020/12/11 06:52:47;;;;;;;0.50;0.50;;;14.10;68.60;;;;;;4994927;28;20038;-78
2020/12/11 06:55:13;;;;;;;0.75;0.70;;;14.10;68.60;;;;;;4992205;28;20470;-78
2020/12/11 06:57:41;;;;;;;0.70;0.55;;;14.10;68.60;;;;;;4992360;28;20046;-78
2020/12/11 07:00:29;;;;;;;0.55;0.55;;;14.10;68.60;;;;;;4993988;28;20096;-78
2020/12/11 07:03:14;;;;;;;;;;;14.10;68.60;;;;;;4993404;28;20130;-78
2020/12/11 07:05:40;;;;;;;1.67;0.75;;;14.10;68.60;;;;;;4993347;28;19985;-78
2020/12/11 07:08:16;;;;;;;0.82;0.60;;;14.10;68.60;;;;;;4992760;28;20478;-78
2020/12/11 07:10:43;;;;;;;0.50;0.50;;;14.10;68.50;;;;;;4970275;28;20058;-77
2020/12/11 07:13:12;;;;;;;0.70;0.67;;;14.10;68.50;;;;;;4971831;28;20034;-79
2020/12/11 07:15:38;;;;;;;0.88;0.70;;;14.10;68.50;;;;;;4973470;28;20678;-77
2020/12/11 07:18:14;;;;;;;0.57;0.50;;;14.10;68.50;;;;;;4989278;28;20051;-78
2020/12/11 07:20:54;;;;;;;0.50;0.50;;;14.10;68.50;;;;;;4974257;28;20042;-77
2020/12/11 07:23:20;;;;;;;0.45;0.45;;;14.10;68.50;;;;;;4984122;28;20049;-77
2020/12/11 07:25:47;;;;;;;0.60;0.60;;;14.10;68.40;;;;;;4985398;28;20488;-78
2020/12/11 07:28:13;;;;;;;0.55;0.45;;;14.10;68.50;;;;;;4994346;28;20476;-78
2020/12/11 07:30:43;;;;;;;0.60;0.52;;;14.20;68.50;;;;;;4993250;28;20037;-78
2020/12/11 07:33:10;;;;;;;0.32;0.30;;;14.10;68.40;;;;;;4991182;28;20038;-78
2020/12/11 07:35:42;;;;;;;0.57;0.57;;;14.10;68.40;;;;;;4991038;28;20665;-78
2020/12/11 07:38:08;;;;;;;0.73;0.70;;;14.20;68.40;;;;;;4967793;28;20493;-78
2020/12/11 07:40:34;;;;;;;0.70;0.55;;;14.20;68.40;;;;;;4990309;28;20093;-78
2020/12/11 07:42:59;;;;;;;0.45;0.45;;;14.20;68.40;;;;;;4976679;28;20078;-78
2020/12/11 07:45:36;;;;;;;0.73;0.60;;;14.20;68.30;;;;;;4991523;28;20069;-79
2020/12/11 07:48:02;;;;;;;0.70;0.50;;;14.20;68.30;;;;;;4991270;28;20041;-78
2020/12/11 07:50:30;;;;;;;0.60;0.60;;;14.20;68.30;;;;;;4990276;28;20399;-78
2020/12/11 07:53:08;;;;;;;0.57;0.57;;;14.10;68.30;;;;;;4993205;28;20577;-78
2020/12/11 07:55:33;;;;;;;0.50;0.50;;;14.20;68.30;;;;;;4973446;28;20041;-78
2020/12/11 07:58:03;;;;;;;0.93;0.65;;;14.20;68.30;;;;;;4992896;28;20074;-78
2020/12/11 08:00:34;;;;;;;0.60;0.60;;;14.20;68.20;;;;;;4993128;28;20396;-78
2020/12/11 08:03:05;;;;;;;0.50;0.40;;;14.20;68.20;;;;;;4970157;28;20058;-78
2020/12/11 08:05:32;;;;;;;0.50;0.50;;;14.20;68.20;;;;;;4991477;28;20105;-78
2020/12/11 08:07:59;;;;;;;0.40;0.40;;;14.20;68.20;;;;;;4985099;28;20054;-78
2020/12/11 08:10:43;;;;;;;0.55;0.43;;;14.20;68.20;;;;;;4990839;28;20038;-78
2020/12/11 08:13:11;;;;;;;0.65;0.65;;;14.20;68.20;;;;;;4992205;28;20089;-78
2020/12/11 08:15:37;;;;;;;0.50;0.50;;;14.20;68.20;;;;;;4965633;28;20395;-78
2020/12/11 08:18:19;;;;;;;0.75;0.55;;;14.20;68.20;;;;;;4991729;28;20034;-77
2020/12/11 08:20:52;;;;;;;0.35;0.35;;;14.20;68.20;;;;;;4975153;28;20255;-77
2020/12/11 08:23:36;;;;;;;0.65;0.50;;;14.20;68.30;;;;;;4984541;28;20070;-76
2020/12/11 08:26:18;;;;;;;0.77;0.68;;;14.20;68.20;;;;;;4993608;28;20034;-81
2020/12/11 08:28:45;;;;;;;4.85;0.70;;;14.20;68.20;;;;;;4974121;28;20037;-75
2020/12/11 08:31:25;;;;;;;1.92;1.40;;;14.30;69.70;;;;;;4989801;28;20130;-82
2020/12/11 08:34:07;;;;;;;2.65;1.70;;;14.30;68.20;;;;;;4994744;28;20492;-82
2020/12/11 08:36:36;;;;;;;7.03;2.35;;;14.30;68.90;;;;;;4994594;28;20037;-82
2020/12/11 08:39:08;;;;;;;6.03;2.33;;;14.30;68.40;;;;;;4973573;28;20034;-82
2020/12/11 08:41:50;;;;;;;6.18;2.58;;;14.30;68.20;;;;;;4995085;28;20031;-80
2020/12/11 08:44:21;;;;;;;3.53;1.90;;;14.40;67.70;;;;;;4975607;28;20045;-80
2020/12/11 08:49:48;;;;;;;4.65;2.17;;;14.30;67.90;;;;;;4991660;28;20069;-80
2020/12/11 08:52:14;;;;;;;2.45;1.95;;;14.30;67.90;;;;;;4973451;28;20038;-80
2020/12/11 08:54:40;;;;;;;3.58;2.00;;;14.30;68.00;;;;;;4970316;28;20113;-79
2020/12/11 08:57:06;;;;;;;2.83;2.10;;;14.30;68.00;;;;;;4981268;28;20457;-79
2020/12/11 08:59:31;;;;;;;2.72;1.77;;;14.30;68.00;;;;;;4989707;28;20475;-79
2020/12/11 09:02:03;;;;;;;3.72;2.28;;;14.30;68.00;;;;;;4989297;28;20035;-80
2020/12/11 09:04:29;;;;;;;3.08;1.63;;;14.30;68.00;;;;;;4988285;28;20126;-79
2020/12/11 09:06:55;;;;;;;2.65;1.65;;;14.30;68.00;;;;;;4989409;28;20053;-79
2020/12/11 09:09:22;;;;;;;2.40;1.77;;;14.30;68.00;;;;;;4991607;28;20062;-78
2020/12/11 09:11:48;;;;;;;4.18;1.80;;;14.30;67.90;;;;;;4988314;28;20689;-79
2020/12/11 09:14:14;;;;;;;1.83;1.60;;;14.30;67.90;;;;;;5001002;28;20048;-78
2020/12/11 09:16:40;;;;;;;3.13;1.90;;;14.30;67.90;;;;;;4994890;28;20100;-80
2020/12/11 09:19:06;;;;;;;3.78;1.92;;;14.30;67.90;;;;;;4989462;28;20478;-80
2020/12/11 09:21:31;;;;;;;3.70;2.42;;;14.30;67.90;;;;;;4973763;28;20361;-78
2020/12/11 09:23:57;;;;;;;3.35;1.48;;;14.30;67.90;;;;;;4974072;28;20042;-79
2020/12/11 09:26:26;;;;;;;2.67;1.73;;;14.30;67.90;;;;;;4975185;28;20038;-79
2020/12/11 09:28:59;;;;;;;2.05;1.52;;;14.40;67.90;;;;;;4961658;28;20489;-79
2020/12/11 09:31:26;;;;;;;2.97;2.15;;;14.30;67.90;;;;;;4984742;28;20034;-78
2020/12/11 09:33:52;;;;;;;3.53;1.70;;;14.30;67.80;;;;;;4990372;28;20043;-78
2020/12/11 09:36:17;;;;;;;2.65;1.60;;;14.40;67.80;;;;;;4990507;28;20046;-78
2020/12/11 09:38:43;;;;;;;2.35;1.65;;;14.40;67.80;;;;;;4989436;28;20030;-80
2020/12/11 09:41:13;;;;;;;2.22;1.70;;;14.40;67.80;;;;;;4990893;28;20036;-81
2020/12/11 09:49:14;;;;;;;3.65;1.75;;;14.40;67.70;;;;;;4989716;28;20061;-81
2020/12/11 09:54:13;;;;;;;2.40;1.80;;;14.40;67.70;;;;;;4996499;28;20074;-81
2020/12/11 09:56:39;;;;;;;3.35;2.05;;;14.40;67.60;;;;;;4979578;28;20038;-81
2020/12/11 09:59:29;;;;;;;3.47;1.92;;;14.40;67.60;;;;;;4982375;28;20086;-81
2020/12/11 10:02:16;;;;;;;2.85;1.80;;;14.40;67.60;;;;;;4969261;28;20045;-81
2020/12/11 10:04:41;;;;;;;4.13;2.03;;;14.40;67.60;;;;;;4974684;28;20052;-80
2020/12/11 10:07:07;;;;;;;2.80;1.75;;;14.40;67.60;;;;;;4996293;28;20559;-81
2020/12/11 10:09:33;;;;;;;2.50;1.70;;;14.50;67.60;;;;;;4990291;28;20038;-80
2020/12/11 10:12:01;;;;;;;2.60;1.83;;;14.40;67.50;;;;;;4994418;28;20054;-80
2020/12/11 10:14:36;;;;;;;3.30;2.17;;;14.40;67.60;;;;;;4995317;28;20092;-80
2020/12/11 10:17:02;;;;;;;2.28;1.70;;;14.50;67.50;;;;;;4988860;28;20042;-80
2020/12/11 10:19:27;;;;;;;2.42;1.88;;;14.50;67.60;;;;;;4994481;28;20376;-81
2020/12/11 10:21:54;;;;;;;2.40;1.70;;;14.50;67.50;;;;;;4976922;28;20137;-80
2020/12/11 10:24:21;;;;;;;3.53;2.10;;;14.50;67.50;;;;;;4982896;28;20042;-80
2020/12/11 10:26:47;;;;;;;2.85;1.65;;;14.50;67.50;;;;;;4977709;28;20042;-80
2020/12/11 10:29:15;;;;;;;1.90;1.58;;;14.50;67.50;;;;;;4995064;28;20030;-80
2020/12/11 10:31:42;;;;;;;2.95;2.00;;;14.50;67.50;;;;;;4975199;28;20485;-79
2020/12/11 10:34:15;;;;;;;2.63;1.95;;;14.50;67.50;;;;;;4994340;28;20050;-80
2020/12/11 10:36:41;;;;;;;5.63;3.47;;;14.50;67.50;;;;;;4991744;28;20037;-80
2020/12/11 10:39:08;;;;;;;2.05;1.58;;;14.50;67.50;;;;;;4977750;28;20132;-80
2020/12/11 10:41:34;;;;;;;4.25;1.70;;;14.50;67.50;;;;;;4993932;28;20052;-78
2020/12/11 10:44:00;;;;;;;3.65;2.25;;;14.50;67.40;;;;;;5050112;23;20114;-84
2020/12/11 10:46:26;;;;;;;3.00;1.83;;;14.50;67.50;;;;;;5018450;28;20133;-84
2020/12/11 10:48:54;;;;;;;1.77;1.40;;;14.60;67.50;;;;;;5019495;28;20041;-82
2020/12/11 10:51:20;;;;;;;3.83;2.05;;;14.60;67.50;;;;;;5036431;28;20493;-83
2020/12/11 10:53:47;;;;;;;8.15;2.00;;;14.50;67.50;;;;;;5035754;28;20049;-83
2020/12/11 10:56:15;;;;;;;2.42;1.50;;;14.50;67.50;;;;;;5007506;28;20052;-81
2020/12/11 10:58:41;;;;;;;2.53;1.67;;;14.50;67.50;;;;;;5012635;28;20066;-81
2020/12/11 11:01:12;;;;;;;2.22;1.80;;;14.60;67.60;;;;;;5008604;28;20037;-81
2020/12/11 11:03:38;;;;;;;3.05;1.98;;;14.50;67.60;;;;;;5047420;28;20049;-83
2020/12/11 11:06:22;;;;;;;3.13;1.48;;;14.50;67.60;;;;;;5040562;28;20048;-81
2020/12/11 11:12:02;;;;;;;2.10;1.70;;;14.50;67.70;;;;;;5005827;28;20502;-84
2020/12/11 11:27:48;;;;;;;2.85;2.13;;;14.50;67.50;;;;;;5029504;28;20048;-82
2020/12/11 11:30:18;;;;;;;4.43;2.00;;;14.50;67.60;;;;;;5032810;28;20196;-81
2020/12/11 11:32:44;;;;;;;2.58;1.98;;;14.60;67.60;;;;;;5017276;28;20042;-81
2020/12/11 11:35:09;;;;;;;1.60;1.48;;;14.60;67.60;;;;;;5034079;28;20037;-82
2020/12/11 11:37:35;;;;;;;2.92;1.90;;;14.50;67.60;;;;;;5005255;28;20034;-81
2020/12/11 11:40:01;;;;;;;2.30;1.58;;;14.60;67.60;;;;;;5024923;28;20029;-83
2020/12/11 11:42:26;;;;;;;2.75;1.80;;;14.50;67.60;;;;;;5015888;28;20037;-81
2020/12/11 11:45:03;;;;;;;2.70;1.75;;;14.50;67.70;;;;;;5013523;28;20518;-79
2020/12/11 11:47:29;;;;;;;3.45;1.83;;;14.50;67.70;;;;;;5015645;28;20045;-80
2020/12/11 11:53:13;;;;;;;2.63;1.63;;;14.60;67.50;;;;;;5031198;28;20116;-79
2020/12/11 11:55:10;;;;;;;3.10;1.80;;;14.60;67.50;;;;;;5023410;28;20116;-79
2020/12/11 11:57:36;;;;;;;4.20;2.00;;;14.50;67.50;;;;;;5033025;28;20025;-79
2020/12/11 12:00:03;;;;;;;3.95;1.85;;;14.50;67.50;;;;;;5011438;28;20433;-80
2020/12/11 12:02:29;;;;;;;2.92;2.03;;;14.50;67.50;;;;;;5030673;28;20032;-79
2020/12/11 12:04:54;;;;;;;1.88;1.50;;;14.60;67.50;;;;;;5010640;28;20407;-79
2020/12/11 12:07:20;;;;;;;1.60;1.30;;;14.60;67.50;;;;;;5023694;28;20038;-80
2020/12/11 12:09:45;;;;;;;4.30;2.03;;;14.60;67.50;;;;;;5009632;28;20395;-79
2020/12/11 12:12:11;;;;;;;3.25;1.80;;;14.50;67.50;;;;;;5033455;28;20038;-78
2020/12/11 12:14:37;;;;;;;2.47;1.90;;;14.60;67.50;;;;;;5028764;28;20555;-79
2020/12/11 12:17:05;;;;;;;2.38;1.85;;;14.50;67.50;;;;;;5031651;28;20045;-78
2020/12/11 12:19:37;;;;;;;2.03;1.50;;;14.60;67.50;;;;;;5030746;28;20040;-79
2020/12/11 12:30:05;;;;;;;2.78;1.70;;;14.60;67.50;;;;;;5002618;28;20029;-79
2020/12/11 12:32:38;;;;;;;2.22;2.03;;;14.60;67.60;;;;;;5031618;28;20040;-78
2020/12/11 12:38:04;;;;;;;3.17;1.80;;;14.50;67.60;;;;;;4954728;28;20055;-80
2020/12/11 12:42:17;;;;;;;3.20;2.20;;;14.50;67.70;;;;;;5014193;28;20076;-80
2020/12/11 12:43:34;;;;;;;2.97;1.85;;;14.50;67.70;;;;;;5031920;28;20065;-79
2020/12/11 12:46:01;;;;;;;3.92;1.70;;;14.50;67.90;;;;;;5042579;28;20084;-78
2020/12/11 12:48:27;;;;;;;6.25;1.90;;;14.50;67.90;;;;;;5004039;28;20137;-79
2020/12/11 12:50:52;;;;;;;6.68;1.90;;;14.50;67.90;;;;;;5009762;28;20116;-79
2020/12/11 12:53:18;;;;;;;2.10;1.55;;;14.50;67.90;;;;;;5028225;28;20045;-80
2020/12/11 12:55:46;;;;;;;2.92;1.83;;;14.50;68.00;;;;;;5033299;28;20041;-80
2020/12/11 12:58:14;;;;;;;5.45;2.13;;;14.50;68.00;;;;;;5031950;28;20033;-80
2020/12/11 13:05:40;;;;;;;3.70;1.75;;;14.50;68.20;;;;;;5031642;28;20120;-79
2020/12/11 13:08:06;;;;;;;9.70;3.00;;;14.50;68.30;;;;;;5014362;28;20037;-79
2020/12/11 13:10:33;;;;;;;6.28;3.17;;;14.50;68.20;;;;;;5031312;28;20485;-79
2020/12/11 13:12:59;;;;;;;3.97;2.17;;;14.50;68.40;;;;;;5031008;28;20045;-79
2020/12/11 13:15:25;;;;;;;3.95;2.17;;;14.50;68.30;;;;;;5031950;28;20037;-79
2020/12/11 13:17:50;;;;;;;4.45;1.80;;;14.50;68.40;;;;;;5024781;28;20580;-79
2020/12/11 13:20:26;;;;;;;5.50;2.38;;;14.50;68.50;;;;;;5031221;28;20030;-79
2020/12/11 13:25:21;;;;;;;4.80;2.20;;;14.50;68.40;;;;;;5031025;28;20128;-79
2020/12/11 13:28:22;;;;;;;5.15;2.30;;;14.50;68.30;;;;;;5032180;28;20442;-79
2020/12/11 13:30:47;;;;;;;7.20;2.45;;;14.50;68.50;;;;;;5031104;28;20030;-79
2020/12/11 13:33:13;;;;;;;11.48;2.97;;;14.50;68.50;;;;;;5028993;28;20049;-79
2020/12/11 13:35:38;;;;;;;4.25;2.13;;;14.50;68.50;;;;;;5031464;28;20033;-79
2020/12/11 13:38:04;;;;;;;4.20;2.33;;;14.50;68.50;;;;;;5010110;28;20034;-79
2020/12/11 13:40:30;;;;;;;6.97;2.10;;;14.40;68.50;;;;;;5013089;28;20157;-79
2020/12/11 13:42:55;;;;;;;6.60;2.30;;;14.50;68.50;;;;;;5031393;28;20045;-78